createdAt,value
2017-12-03T11:13:25.127Z,8.76
2017-12-03T11:15:53.526Z,10.20
2017-12-03T11:18:21.393Z,10.27
2017-12-03T11:20:50.758Z,8.50
2017-12-03T11:23:19.148Z,11.07
2017-12-03T11:25:48.294Z,11.20
2017-12-03T11:28:16.970Z,10.03
2017-12-03T11:30:46.391Z,10.63
2017-12-03T11:33:15.839Z,10.48
2017-12-03T11:35:45.177Z,10.17
2017-12-03T11:38:13.564Z,10.63
2017-12-03T11:40:41.954Z,8.03
2017-12-03T11:43:10.349Z,9.80
2017-12-03T11:45:39.027Z,10.10
2017-12-03T11:48:07.697Z,9.85
2017-12-03T11:50:36.097Z,9.70
2017-12-03T11:53:04.621Z,9.13
2017-12-03T11:55:33.548Z,9.90
2017-12-03T11:58:02.810Z,9.50
2017-12-03T12:00:31.212Z,10.20
2017-12-03T12:02:59.655Z,10.30
2017-12-03T12:05:28.040Z,10.20
2017-12-03T12:07:56.436Z,9.10
2017-12-03T12:10:25.241Z,9.33
2017-12-03T12:12:54.534Z,9.03
2017-12-03T12:15:23.104Z,7.67
2017-12-03T12:17:51.482Z,8.97
2017-12-03T12:20:20.010Z,9.50
2017-12-03T12:22:48.658Z,7.15
2017-12-03T12:25:17.156Z,7.73
2017-12-03T12:27:46.146Z,8.00
2017-12-03T12:30:14.801Z,8.18
2017-12-03T12:32:43.182Z,8.83
2017-12-03T12:35:12.325Z,9.10
2017-12-03T12:37:40.532Z,8.43
2017-12-03T12:40:09.678Z,8.60
2017-12-03T12:42:38.289Z,7.72
2017-12-03T12:45:07.766Z,8.77
2017-12-03T12:47:35.641Z,9.20
2017-12-03T12:50:05.021Z,8.30
2017-12-03T12:52:33.233Z,9.17
2017-12-03T12:55:02.292Z,8.70
2017-12-03T12:57:30.477Z,8.93
2017-12-03T12:59:58.786Z,8.40
2017-12-03T13:02:27.174Z,8.67
2017-12-03T13:04:55.836Z,8.38
2017-12-03T13:07:24.974Z,10.83
2017-12-03T13:09:54.414Z,9.52
2017-12-03T13:12:23.782Z,10.23
2017-12-03T13:14:52.171Z,9.57
2017-12-03T13:17:20.820Z,8.17
2017-12-03T13:19:49.446Z,9.63
2017-12-03T13:22:21.529Z,8.60
2017-12-03T13:24:49.933Z,9.70
2017-12-03T13:27:19.081Z,9.70
2017-12-03T13:29:47.739Z,9.77
2017-12-03T13:32:16.132Z,10.50
2017-12-03T13:34:45.532Z,9.23
2017-12-03T13:37:14.189Z,9.63
2017-12-03T13:39:42.854Z,9.82
2017-12-03T13:42:12.000Z,9.13
2017-12-03T13:44:40.642Z,10.57
2017-12-03T13:47:09.306Z,9.27
2017-12-03T13:49:37.983Z,9.32
2017-12-03T13:52:06.661Z,9.50
2017-12-03T13:54:35.046Z,9.43
2017-12-03T13:57:03.758Z,9.63
2017-12-03T13:59:34.043Z,9.67
2017-12-03T14:02:02.917Z,8.82
2017-12-03T14:04:31.466Z,9.87
2017-12-03T14:06:59.970Z,10.43
2017-12-03T14:09:28.423Z,9.40
2017-12-03T14:11:58.318Z,9.65
2017-12-03T14:14:26.862Z,9.40
2017-12-03T14:16:55.275Z,9.47
2017-12-03T14:19:24.245Z,10.00
2017-12-03T14:21:52.443Z,10.00
2017-12-03T14:24:21.429Z,9.80
2017-12-03T14:26:49.900Z,9.65
2017-12-03T14:29:20.862Z,8.83
2017-12-03T14:31:49.617Z,9.93
2017-12-03T14:34:18.289Z,9.70
2017-12-03T14:36:46.683Z,9.30
2017-12-03T14:39:15.977Z,10.80
2017-12-03T14:41:44.555Z,10.20
2017-12-03T14:44:14.029Z,11.18
2017-12-03T14:46:42.237Z,11.47
2017-12-03T14:49:10.723Z,10.85
2017-12-03T14:51:39.107Z,10.27
2017-12-03T14:54:08.053Z,10.60
2017-12-03T14:56:37.133Z,11.55
2017-12-03T14:59:06.569Z,10.77
2017-12-03T15:01:35.239Z,10.18
2017-12-03T15:04:03.460Z,10.00
2017-12-03T15:06:32.704Z,9.80
2017-12-03T15:09:01.052Z,9.80
2017-12-03T15:11:31.652Z,9.90
2017-12-03T15:13:59.969Z,10.20
2017-12-03T15:16:27.751Z,10.43
2017-12-03T15:18:55.754Z,10.45
2017-12-03T15:21:23.570Z,9.50
2017-12-03T15:23:51.302Z,9.70
2017-12-03T15:26:19.818Z,9.97
2017-12-03T15:28:47.826Z,10.75
2017-12-03T15:31:15.558Z,9.83
2017-12-03T15:33:43.611Z,8.73
2017-12-03T15:36:11.649Z,9.87
2017-12-03T15:38:40.145Z,8.50
2017-12-03T15:41:07.860Z,10.20
2017-12-03T15:43:36.687Z,9.15
2017-12-03T15:46:04.350Z,10.63
2017-12-03T15:48:32.250Z,9.83
2017-12-03T15:50:59.982Z,10.10
2017-12-03T15:53:28.584Z,11.10
2017-12-03T15:55:57.349Z,9.70
2017-12-03T15:58:26.193Z,11.38
2017-12-03T16:00:53.934Z,10.00
2017-12-03T16:03:21.660Z,11.00
2017-12-03T16:05:50.141Z,9.37
2017-12-03T16:08:19.397Z,10.30
2017-12-03T16:10:47.442Z,9.43
2017-12-03T16:13:16.033Z,10.40
2017-12-03T16:15:44.433Z,9.87
2017-12-03T16:18:12.491Z,9.37
2017-12-03T16:20:40.817Z,9.38
2017-12-03T16:23:09.505Z,9.93
2017-12-03T16:25:38.662Z,10.63
2017-12-03T16:28:07.287Z,10.80
2017-12-03T16:30:35.591Z,10.97
2017-12-03T16:33:04.237Z,9.70
2017-12-03T16:35:32.570Z,11.13
2017-12-03T16:38:00.906Z,11.68
2017-12-03T16:40:29.290Z,11.80
2017-12-03T16:42:57.918Z,11.00
2017-12-03T16:45:26.102Z,11.77
2017-12-03T16:47:54.100Z,11.38
2017-12-03T16:50:22.681Z,11.30
2017-12-03T16:52:51.082Z,13.27
2017-12-03T16:55:19.665Z,11.37
2017-12-03T16:57:47.969Z,13.20
2017-12-03T17:00:15.707Z,12.97
2017-12-03T17:02:44.091Z,10.80
2017-12-03T17:05:11.807Z,12.47
2017-12-03T17:07:40.300Z,13.83
2017-12-03T17:10:08.721Z,13.30
2017-12-03T17:12:36.771Z,12.63
2017-12-03T17:15:05.256Z,13.50
2017-12-03T17:17:33.998Z,13.90
2017-12-03T17:20:02.402Z,14.73
2017-12-03T17:22:30.289Z,14.97
2017-12-03T17:24:59.206Z,13.00
2017-12-03T17:27:27.178Z,13.53
2017-12-03T17:29:55.058Z,13.73
2017-12-03T17:32:23.537Z,14.70
2017-12-03T17:34:51.279Z,17.63
2017-12-03T17:37:19.800Z,15.30
2017-12-03T17:39:48.965Z,15.30
2017-12-03T17:42:17.620Z,14.98
2017-12-03T17:44:46.305Z,15.80
2017-12-03T17:47:14.711Z,15.20
2017-12-03T17:49:43.092Z,13.63
2017-12-03T17:52:11.499Z,15.03
2017-12-03T17:54:40.163Z,16.15
2017-12-03T17:57:08.814Z,15.07
2017-12-03T17:59:37.478Z,15.13
2017-12-03T18:02:06.984Z,14.38
2017-12-03T18:04:36.207Z,14.90
2017-12-03T18:07:05.608Z,16.07
2017-12-03T18:09:34.006Z,16.67
2017-12-03T18:12:02.676Z,15.93
2017-12-03T18:14:31.062Z,15.27
2017-12-03T18:16:59.752Z,16.50
2017-12-03T18:19:28.421Z,14.80
2017-12-03T18:21:57.518Z,15.40
2017-12-03T18:24:25.894Z,16.30
2017-12-03T18:26:54.286Z,15.40
2017-12-03T18:29:22.355Z,14.50
2017-12-03T18:31:50.254Z,16.17
2017-12-03T18:34:19.601Z,15.03
2017-12-03T18:36:47.949Z,16.67
2017-12-03T18:39:17.755Z,16.37
2017-12-03T18:41:45.897Z,15.23
2017-12-03T18:44:14.377Z,14.83
2017-12-03T18:46:44.519Z,15.10
2017-12-03T18:49:12.969Z,14.77
2017-12-03T18:51:41.907Z,18.07
2017-12-03T18:54:11.974Z,16.90
2017-12-03T18:56:40.307Z,15.35
2017-12-03T18:59:08.339Z,16.87
2017-12-03T19:01:36.485Z,16.00
2017-12-03T19:04:04.294Z,16.30
2017-12-03T19:06:31.838Z,15.93
2017-12-03T19:09:00.502Z,17.70
2017-12-03T19:11:28.882Z,14.63
2017-12-03T19:13:56.426Z,16.83
2017-12-03T19:16:24.444Z,16.20
2017-12-03T19:18:52.639Z,17.27
2017-12-03T19:21:21.229Z,16.90
2017-12-03T19:23:49.273Z,17.80
2017-12-03T19:26:16.988Z,17.60
2017-12-03T19:28:46.154Z,15.97
2017-12-03T19:31:15.399Z,16.07
2017-12-03T19:33:44.077Z,16.62
2017-12-03T19:36:12.090Z,16.87
2017-12-03T19:38:40.270Z,18.73
2017-12-03T19:41:09.699Z,16.87
2017-12-03T19:43:38.168Z,16.80
2017-12-03T19:46:06.564Z,17.50
2017-12-03T19:48:34.282Z,17.33
2017-12-03T19:51:02.121Z,18.00
2017-12-03T19:53:30.942Z,17.07
2017-12-03T19:56:00.036Z,17.62
2017-12-03T19:58:29.420Z,17.10
2017-12-03T20:00:57.494Z,18.30
2017-12-03T20:03:26.693Z,18.23
2017-12-03T20:05:54.753Z,16.57
2017-12-03T20:08:24.199Z,19.60
2017-12-03T20:10:52.249Z,18.80
2017-12-03T20:13:20.655Z,17.90
2017-12-03T20:15:49.179Z,17.75
2017-12-03T20:18:16.899Z,18.40
2017-12-03T20:20:45.231Z,19.30
2017-12-03T20:23:14.623Z,19.67
2017-12-03T20:25:43.446Z,18.67
2017-12-03T20:28:11.990Z,18.43
2017-12-03T20:30:41.547Z,18.33
2017-12-03T20:33:09.875Z,19.27
2017-12-03T20:35:38.416Z,19.65
2017-12-03T20:38:07.638Z,19.13
2017-12-03T20:40:35.502Z,18.45
2017-12-03T20:43:03.987Z,18.67
2017-12-03T20:45:32.130Z,18.23
2017-12-03T20:48:01.554Z,18.00
2017-12-03T20:50:30.526Z,19.17
2017-12-03T20:52:58.640Z,16.97
2017-12-03T20:55:26.778Z,19.03
2017-12-03T20:57:55.772Z,19.60
2017-12-03T21:00:24.499Z,16.67
2017-12-03T21:02:53.154Z,19.50
2017-12-03T21:05:22.625Z,18.17
2017-12-03T21:07:50.700Z,18.03
2017-12-03T21:10:19.031Z,19.67
2017-12-03T21:12:46.763Z,17.90
2017-12-03T21:15:15.039Z,18.55
2017-12-03T21:17:43.519Z,17.70
2017-12-03T21:20:12.676Z,17.40
2017-12-03T21:22:40.388Z,18.90
2017-12-03T21:25:09.530Z,18.83
2017-12-03T21:27:37.866Z,17.70
2017-12-03T21:30:05.616Z,17.37
2017-12-03T21:32:34.808Z,17.97
2017-12-03T21:35:03.117Z,17.10
2017-12-03T21:37:30.998Z,15.67
2017-12-03T21:39:59.042Z,16.20
2017-12-03T21:42:27.386Z,15.95
2017-12-03T21:44:58.772Z,17.43
2017-12-03T21:47:27.418Z,15.53
2017-12-03T21:49:55.902Z,17.30
2017-12-03T21:52:24.405Z,16.10
2017-12-03T21:54:53.762Z,15.50
2017-12-03T21:57:21.971Z,16.90
2017-12-03T21:59:51.133Z,16.03
2017-12-03T22:02:19.521Z,15.47
2017-12-03T22:04:49.193Z,17.23
2017-12-03T22:07:17.582Z,16.93
2017-12-03T22:09:45.969Z,14.70
2017-12-03T22:12:14.365Z,15.53
2017-12-03T22:14:42.749Z,17.37
2017-12-03T22:17:11.125Z,15.87
2017-12-03T22:19:39.553Z,17.03
2017-12-03T22:22:07.945Z,14.77
2017-12-03T22:24:36.335Z,15.40
2017-12-03T22:27:04.771Z,16.17
2017-12-03T22:29:33.158Z,15.40
2017-12-03T22:32:01.543Z,15.53
2017-12-03T22:34:29.942Z,13.20
2017-12-03T22:36:58.323Z,13.83
2017-12-03T22:39:26.706Z,13.57
2017-12-03T22:41:55.910Z,14.00
2017-12-03T22:44:24.304Z,15.93
2017-12-03T22:46:52.689Z,14.20
2017-12-03T22:49:21.850Z,14.10
2017-12-03T22:51:50.834Z,14.60
2017-12-03T22:54:19.222Z,14.90
2017-12-03T22:56:47.648Z,13.70
2017-12-03T22:59:16.806Z,14.33
2017-12-03T23:01:45.188Z,13.73
2017-12-03T23:04:14.429Z,14.57
2017-12-03T23:06:42.813Z,14.30
2017-12-03T23:09:12.129Z,13.33
2017-12-03T23:11:40.525Z,14.70
2017-12-03T23:14:08.897Z,13.77
2017-12-03T23:16:37.288Z,13.67
2017-12-03T23:19:05.686Z,13.13
2017-12-03T23:21:34.071Z,13.77
2017-12-03T23:24:02.555Z,16.03
2017-12-03T23:26:30.868Z,14.40
2017-12-03T23:28:59.072Z,14.60
2017-12-03T23:31:27.134Z,15.50
2017-12-03T23:33:55.351Z,14.60
2017-12-03T23:36:23.974Z,14.23
2017-12-03T23:38:52.417Z,13.30
2017-12-03T23:41:21.844Z,13.33
2017-12-03T23:43:49.898Z,13.53
2017-12-03T23:46:18.198Z,15.00
2017-12-03T23:48:46.585Z,14.00
2017-12-03T23:51:14.325Z,14.87
2017-12-03T23:53:42.725Z,14.50
2017-12-03T23:56:10.789Z,14.30
2017-12-03T23:58:38.503Z,13.80
